sensor_id;sensor_type;location;lat;lon;timestamp;pressure;altitude;pressure_sealevel;temperature;humidity
19086;BME280;9675;51.538;6.728;2023-04-28T00:02:02;101018.66;;;14.68;44.89
19086;BME280;9675;51.538;6.728;2023-04-28T00:04:31;101014.28;;;14.67;44.53
19086;BME280;9675;51.538;6.728;2023-04-28T00:06:58;101012.47;;;14.64;44.67
19086;BME280;9675;51.538;6.728;2023-04-28T00:09:25;101015.00;;;14.63;45.25
19086;BME280;9675;51.538;6.728;2023-04-28T00:11:52;101007.16;;;14.61;45.22
19086;BME280;9675;51.538;6.728;2023-04-28T00:14:19;101010.63;;;14.60;45.65
19086;BME280;9675;51.538;6.728;2023-04-28T00:16:45;100998.34;;;14.56;44.82
19086;BME280;9675;51.538;6.728;2023-04-28T00:19:12;101006.97;;;14.55;45.85
19086;BME280;9675;51.538;6.728;2023-04-28T00:21:41;100993.94;;;14.54;45.36
19086;BME280;9675;51.538;6.728;2023-04-28T00:24:08;100993.06;;;14.53;46.19
19086;BME280;9675;51.538;6.728;2023-04-28T00:26:35;100989.53;;;14.51;45.91
19086;BME280;9675;51.538;6.728;2023-04-28T00:29:02;100976.47;;;14.48;46.34
19086;BME280;9675;51.538;6.728;2023-04-28T00:31:29;100975.53;;;14.46;46.83
19086;BME280;9675;51.538;6.728;2023-04-28T00:33:56;100966.84;;;14.44;47.17
19086;BME280;9675;51.538;6.728;2023-04-28T00:36:23;100963.28;;;14.42;47.08
19086;BME280;9675;51.538;6.728;2023-04-28T00:38:51;100957.13;;;14.38;47.69
19086;BME280;9675;51.538;6.728;2023-04-28T00:41:18;100956.19;;;14.36;47.99
19086;BME280;9675;51.538;6.728;2023-04-28T00:43:47;100959.53;;;14.34;47.81
19086;BME280;9675;51.538;6.728;2023-04-28T00:46:21;100960.28;;;14.31;48.26
19086;BME280;9675;51.538;6.728;2023-04-28T00:48:49;100955.00;;;14.28;48.07
19086;BME280;9675;51.538;6.728;2023-04-28T00:51:16;100956.72;;;14.28;48.00
19086;BME280;9675;51.538;6.728;2023-04-28T00:53:43;100953.94;;;14.23;48.78
19086;BME280;9675;51.538;6.728;2023-04-28T00:56:11;100950.34;;;14.20;48.68
19086;BME280;9675;51.538;6.728;2023-04-28T00:58:39;100950.25;;;14.17;49.04
19086;BME280;9675;51.538;6.728;2023-04-28T01:01:08;100964.00;;;14.16;49.20
19086;BME280;9675;51.538;6.728;2023-04-28T01:03:38;100958.75;;;14.13;49.16
19086;BME280;9675;51.538;6.728;2023-04-28T01:06:07;100960.44;;;14.12;49.24
19086;BME280;9675;51.538;6.728;2023-04-28T01:08:37;100953.44;;;14.10;49.35
19086;BME280;9675;51.538;6.728;2023-04-28T01:11:04;100947.34;;;14.08;49.33
19086;BME280;9675;51.538;6.728;2023-04-28T01:13:33;100940.31;;;14.05;49.98
19086;BME280;9675;51.538;6.728;2023-04-28T01:16:00;100942.88;;;14.03;49.89
19086;BME280;9675;51.538;6.728;2023-04-28T01:18:27;100935.78;;;13.99;49.84
19086;BME280;9675;51.538;6.728;2023-04-28T01:20:54;100938.28;;;13.96;50.64
19086;BME280;9675;51.538;6.728;2023-04-28T01:23:21;100936.50;;;13.95;50.62
19086;BME280;9675;51.538;6.728;2023-04-28T01:25:49;100942.50;;;13.94;50.31
19086;BME280;9675;51.538;6.728;2023-04-28T01:28:16;100940.63;;;13.90;50.83
19086;BME280;9675;51.538;6.728;2023-04-28T01:30:43;100937.94;;;13.87;52.21
19086;BME280;9675;51.538;6.728;2023-04-28T01:33:10;100935.28;;;13.86;51.25
19086;BME280;9675;51.538;6.728;2023-04-28T01:35:37;100934.34;;;13.84;51.24
19086;BME280;9675;51.538;6.728;2023-04-28T01:38:04;100938.66;;;13.83;51.55
19086;BME280;9675;51.538;6.728;2023-04-28T01:40:31;100927.28;;;13.80;51.50
19086;BME280;9675;51.538;6.728;2023-04-28T01:43:00;100936.75;;;13.79;53.07
19086;BME280;9675;51.538;6.728;2023-04-28T01:45:27;100928.81;;;13.75;52.58
19086;BME280;9675;51.538;6.728;2023-04-28T01:47:54;100920.06;;;13.71;52.72
19086;BME280;9675;51.538;6.728;2023-04-28T01:50:21;100920.00;;;13.70;53.81
19086;BME280;9675;51.538;6.728;2023-04-28T01:52:48;100925.97;;;13.67;53.71
19086;BME280;9675;51.538;6.728;2023-04-28T01:55:15;100923.13;;;13.61;53.86
19086;BME280;9675;51.538;6.728;2023-04-28T01:57:42;100923.06;;;13.59;55.09
19086;BME280;9675;51.538;6.728;2023-04-28T02:00:11;100922.06;;;13.56;54.38
19086;BME280;9675;51.538;6.728;2023-04-28T02:02:38;100904.69;;;13.53;54.70
19086;BME280;9675;51.538;6.728;2023-04-28T02:05:15;100911.47;;;13.50;54.38
19086;BME280;9675;51.538;6.728;2023-04-28T02:07:48;100911.47;;;13.50;56.20
19086;BME280;9675;51.538;6.728;2023-04-28T02:10:15;100906.19;;;13.47;55.54
19086;BME280;9675;51.538;6.728;2023-04-28T02:12:42;100904.28;;;13.43;56.05
19086;BME280;9675;51.538;6.728;2023-04-28T02:15:11;100899.97;;;13.42;55.99
19086;BME280;9675;51.538;6.728;2023-04-28T02:17:38;100896.34;;;13.38;55.85
19086;BME280;9675;51.538;6.728;2023-04-28T02:20:07;100897.13;;;13.36;56.64
19086;BME280;9675;51.538;6.728;2023-04-28T02:22:37;100897.00;;;13.33;56.90
19086;BME280;9675;51.538;6.728;2023-04-28T02:25:09;100893.50;;;13.31;56.49
19086;BME280;9675;51.538;6.728;2023-04-28T02:27:37;100897.69;;;13.29;56.58
19086;BME280;9675;51.538;6.728;2023-04-28T02:30:06;100893.31;;;13.26;57.74
19086;BME280;9675;51.538;6.728;2023-04-28T02:32:35;100897.53;;;13.24;57.07
19086;BME280;9675;51.538;6.728;2023-04-28T02:35:02;100891.38;;;13.21;58.81
19086;BME280;9675;51.538;6.728;2023-04-28T02:37:29;100891.22;;;13.17;57.68
19086;BME280;9675;51.538;6.728;2023-04-28T02:39:56;100897.22;;;13.16;58.13
19086;BME280;9675;51.538;6.728;2023-04-28T02:42:23;100896.22;;;13.13;59.87
19086;BME280;9675;51.538;6.728;2023-04-28T02:44:50;100890.97;;;13.11;59.64
19086;BME280;9675;51.538;6.728;2023-04-28T02:47:17;100879.59;;;13.08;59.58
19086;BME280;9675;51.538;6.728;2023-04-28T02:49:46;100880.38;;;13.05;60.93
19086;BME280;9675;51.538;6.728;2023-04-28T02:52:13;100876.84;;;13.03;61.89
19086;BME280;9675;51.538;6.728;2023-04-28T02:54:40;100884.53;;;13.02;61.84
19086;BME280;9675;51.538;6.728;2023-04-28T02:57:07;100889.66;;;13.00;61.68
19086;BME280;9675;51.538;6.728;2023-04-28T02:59:34;100883.53;;;12.98;62.71
19086;BME280;9675;51.538;6.728;2023-04-28T03:02:01;100881.75;;;12.97;63.29
19086;BME280;9675;51.538;6.728;2023-04-28T03:04:28;100878.25;;;12.95;63.50
19086;BME280;9675;51.538;6.728;2023-04-28T03:06:56;100879.88;;;12.93;64.49
19086;BME280;9675;51.538;6.728;2023-04-28T03:09:23;100881.50;;;12.91;64.69
19086;BME280;9675;51.538;6.728;2023-04-28T03:11:50;100878.88;;;12.90;66.81
19086;BME280;9675;51.538;6.728;2023-04-28T03:14:17;100872.69;;;12.86;69.07
19086;BME280;9675;51.538;6.728;2023-04-28T03:16:44;100876.03;;;12.84;71.83
19086;BME280;9675;51.538;6.728;2023-04-28T03:19:11;100869.03;;;12.81;73.68
19086;BME280;9675;51.538;6.728;2023-04-28T03:21:38;100858.59;;;12.78;72.07
19086;BME280;9675;51.538;6.728;2023-04-28T03:24:07;100849.88;;;12.76;72.44
19086;BME280;9675;51.538;6.728;2023-04-28T03:26:34;100838.53;;;12.72;73.77
19086;BME280;9675;51.538;6.728;2023-04-28T03:29:01;100844.44;;;12.70;74.83
19086;BME280;9675;51.538;6.728;2023-04-28T03:31:28;100838.28;;;12.66;75.30
19086;BME280;9675;51.538;6.728;2023-04-28T03:33:55;100836.50;;;12.65;75.86
19086;BME280;9675;51.538;6.728;2023-04-28T03:36:24;100833.00;;;12.63;76.33
19086;BME280;9675;51.538;6.728;2023-04-28T03:38:52;100832.06;;;12.61;75.94
19086;BME280;9675;51.538;6.728;2023-04-28T03:41:20;100823.34;;;12.59;75.04
19086;BME280;9675;51.538;6.728;2023-04-28T03:43:47;100816.38;;;12.57;75.58
19086;BME280;9675;51.538;6.728;2023-04-28T03:46:14;100813.78;;;12.57;74.72
19086;BME280;9675;51.538;6.728;2023-04-28T03:48:41;100813.72;;;12.55;78.53
19086;BME280;9675;51.538;6.728;2023-04-28T03:51:08;100808.50;;;12.54;78.02
19086;BME280;9675;51.538;6.728;2023-04-28T03:53:35;100800.63;;;12.51;78.38
19086;BME280;9675;51.538;6.728;2023-04-28T03:56:02;100789.31;;;12.49;78.93
19086;BME280;9675;51.538;6.728;2023-04-28T03:58:31;100787.50;;;12.46;82.75
19086;BME280;9675;51.538;6.728;2023-04-28T04:00:58;100777.06;;;12.43;82.99
19086;BME280;9675;51.538;6.728;2023-04-28T04:03:25;100770.88;;;12.40;82.32
19086;BME280;9675;51.538;6.728;2023-04-28T04:05:52;100769.97;;;12.38;81.40
19086;BME280;9675;51.538;6.728;2023-04-28T04:08:20;100772.47;;;12.36;81.84
19086;BME280;9675;51.538;6.728;2023-04-28T04:10:47;100779.31;;;12.35;81.24
19086;BME280;9675;51.538;6.728;2023-04-28T04:13:14;100790.44;;;12.33;81.66
19086;BME280;9675;51.538;6.728;2023-04-28T04:15:42;100807.63;;;12.32;81.85
19086;BME280;9675;51.538;6.728;2023-04-28T04:18:09;100812.78;;;12.32;81.68
19086;BME280;9675;51.538;6.728;2023-04-28T04:20:37;100806.66;;;12.30;83.32
19086;BME280;9675;51.538;6.728;2023-04-28T04:23:04;100795.44;;;12.30;82.48
19086;BME280;9675;51.538;6.728;2023-04-28T04:25:31;100796.22;;;12.27;84.39
19086;BME280;9675;51.538;6.728;2023-04-28T04:27:58;100797.84;;;12.25;84.29
19086;BME280;9675;51.538;6.728;2023-04-28T04:30:25;100802.03;;;12.23;83.28
19086;BME280;9675;51.538;6.728;2023-04-28T04:32:54;100808.97;;;12.24;83.92
19086;BME280;9675;51.538;6.728;2023-04-28T04:35:21;100797.72;;;12.22;84.90
19086;BME280;9675;51.538;6.728;2023-04-28T04:37:48;100792.56;;;12.22;84.66
19086;BME280;9675;51.538;6.728;2023-04-28T04:40:15;100795.94;;;12.21;84.13
19086;BME280;9675;51.538;6.728;2023-04-28T04:42:42;100781.34;;;12.22;91.15
19086;BME280;9675;51.538;6.728;2023-04-28T04:45:09;100775.22;;;12.20;88.38
19086;BME280;9675;51.538;6.728;2023-04-28T04:47:37;100767.38;;;12.17;93.38
19086;BME280;9675;51.538;6.728;2023-04-28T04:50:07;100775.94;;;12.16;93.84
19086;BME280;9675;51.538;6.728;2023-04-28T04:52:34;100771.50;;;12.13;92.87
19086;BME280;9675;51.538;6.728;2023-04-28T04:55:02;100764.59;;;12.12;92.74
19086;BME280;9675;51.538;6.728;2023-04-28T04:57:29;100770.56;;;12.11;93.69
19086;BME280;9675;51.538;6.728;2023-04-28T04:59:56;100768.81;;;12.10;92.58
19086;BME280;9675;51.538;6.728;2023-04-28T05:02:23;100774.78;;;12.09;96.07
19086;BME280;9675;51.538;6.728;2023-04-28T05:04:50;100774.69;;;12.08;95.18
19086;BME280;9675;51.538;6.728;2023-04-28T05:07:18;100773.81;;;12.07;94.52
19086;BME280;9675;51.538;6.728;2023-04-28T05:09:45;100771.25;;;12.07;94.26
19086;BME280;9675;51.538;6.728;2023-04-28T05:12:12;100766.06;;;12.07;94.94
19086;BME280;9675;51.538;6.728;2023-04-28T05:14:39;100771.19;;;12.06;93.00
19086;BME280;9675;51.538;6.728;2023-04-28T05:17:06;100773.69;;;12.04;94.60
19086;BME280;9675;51.538;6.728;2023-04-28T05:19:33;100771.94;;;12.03;93.93
19086;BME280;9675;51.538;6.728;2023-04-28T05:22:01;100765.97;;;12.04;97.58
19086;BME280;9675;51.538;6.728;2023-04-28T05:24:29;100764.19;;;12.03;96.72
19086;BME280;9675;51.538;6.728;2023-04-28T05:26:58;100761.56;;;12.02;96.06
19086;BME280;9675;51.538;6.728;2023-04-28T05:29:25;100759.81;;;12.01;97.07
19086;BME280;9675;51.538;6.728;2023-04-28T05:31:52;100755.53;;;12.01;95.55
19086;BME280;9675;51.538;6.728;2023-04-28T05:34:19;100749.41;;;11.99;96.92
19086;BME280;9675;51.538;6.728;2023-04-28T05:36:46;100741.66;;;11.99;98.67
19086;BME280;9675;51.538;6.728;2023-04-28T05:39:13;100743.28;;;11.97;98.02
19086;BME280;9675;51.538;6.728;2023-04-28T05:41:42;100745.06;;;11.98;100.00
19086;BME280;9675;51.538;6.728;2023-04-28T05:44:09;100737.28;;;11.97;100.00
19086;BME280;9675;51.538;6.728;2023-04-28T05:46:36;100742.44;;;11.97;100.00
19086;BME280;9675;51.538;6.728;2023-04-28T05:49:03;100744.13;;;11.96;100.00
19086;BME280;9675;51.538;6.728;2023-04-28T05:51:30;100737.19;;;11.95;100.00
19086;BME280;9675;51.538;6.728;2023-04-28T05:53:58;100738.97;;;11.96;100.00
19086;BME280;9675;51.538;6.728;2023-04-28T05:56:25;100743.28;;;11.97;100.00
19086;BME280;9675;51.538;6.728;2023-04-28T05:58:54;100740.66;;;11.96;100.00
19086;BME280;9675;51.538;6.728;2023-04-28T06:01:23;100735.50;;;11.96;100.00
19086;BME280;9675;51.538;6.728;2023-04-28T06:03:50;100741.53;;;11.96;100.00
19086;BME280;9675;51.538;6.728;2023-04-28T06:06:18;100743.28;;;11.97;100.00
19086;BME280;9675;51.538;6.728;2023-04-28T06:08:46;100742.44;;;11.97;100.00
19086;BME280;9675;51.538;6.728;2023-04-28T06:11:13;100745.88;;;11.97;100.00
19086;BME280;9675;51.538;6.728;2023-04-28T06:13:40;100744.94;;;11.95;100.00
19086;BME280;9675;51.538;6.728;2023-04-28T06:16:08;100732.03;;;11.95;100.00
19086;BME280;9675;51.538;6.728;2023-04-28T06:18:35;100734.53;;;11.93;100.00
19086;BME280;9675;51.538;6.728;2023-04-28T06:21:02;100731.06;;;11.93;100.00
19086;BME280;9675;51.538;6.728;2023-04-28T06:23:29;100734.47;;;11.92;100.00
19086;BME280;9675;51.538;6.728;2023-04-28T06:25:56;100735.34;;;11.92;100.00
19086;BME280;9675;51.538;6.728;2023-04-28T06:28:24;100729.31;;;11.92;100.00
19086;BME280;9675;51.538;6.728;2023-04-28T06:30:51;100728.44;;;11.91;100.00
19086;BME280;9675;51.538;6.728;2023-04-28T06:33:19;100726.78;;;11.93;100.00
19086;BME280;9675;51.538;6.728;2023-04-28T06:35:46;100718.94;;;11.90;100.00
19086;BME280;9675;51.538;6.728;2023-04-28T06:38:14;100725.78;;;11.90;100.00
19086;BME280;9675;51.538;6.728;2023-04-28T06:40:41;100719.75;;;11.89;100.00
19086;BME280;9675;51.538;6.728;2023-04-28T06:43:08;100719.69;;;11.88;100.00
19086;BME280;9675;51.538;6.728;2023-04-28T06:45:35;100719.75;;;11.89;100.00
19086;BME280;9675;51.538;6.728;2023-04-28T06:48:02;100708.66;;;11.92;100.00
19086;BME280;9675;51.538;6.728;2023-04-28T06:50:30;100708.66;;;11.92;100.00
19086;BME280;9675;51.538;6.728;2023-04-28T06:52:57;100705.16;;;11.90;100.00
19086;BME280;9675;51.538;6.728;2023-04-28T06:55:25;100713.81;;;11.92;100.00
19086;BME280;9675;51.538;6.728;2023-04-28T06:57:52;100713.00;;;11.93;100.00
19086;BME280;9675;51.538;6.728;2023-04-28T07:00:20;100718.25;;;11.95;100.00
19086;BME280;9675;51.538;6.728;2023-04-28T07:02:47;100713.16;;;11.96;100.00
19086;BME280;9675;51.538;6.728;2023-04-28T07:05:14;100707.16;;;11.97;100.00
19086;BME280;9675;51.538;6.728;2023-04-28T07:07:43;100701.13;;;11.97;100.00
19086;BME280;9675;51.538;6.728;2023-04-28T07:10:10;100696.72;;;11.94;100.00
19086;BME280;9675;51.538;6.728;2023-04-28T07:12:38;100698.50;;;11.95;100.00
19086;BME280;9675;51.538;6.728;2023-04-28T07:15:07;100700.25;;;11.96;100.00
19086;BME280;9675;51.538;6.728;2023-04-28T07:17:34;100696.91;;;11.99;100.00
19086;BME280;9675;51.538;6.728;2023-04-28T07:20:02;100706.41;;;12.00;100.00
19086;BME280;9675;51.538;6.728;2023-04-28T07:22:30;100696.22;;;12.03;100.00
19086;BME280;9675;51.538;6.728;2023-04-28T07:24:58;100693.69;;;12.04;100.00
19086;BME280;9675;51.538;6.728;2023-04-28T07:27:25;100705.03;;;12.08;100.00
19086;BME280;9675;51.538;6.728;2023-04-28T07:29:52;100701.69;;;12.10;100.00
19086;BME280;9675;51.538;6.728;2023-04-28T07:32:19;100707.81;;;12.12;100.00
19086;BME280;9675;51.538;6.728;2023-04-28T07:34:46;100714.84;;;12.16;100.00
19086;BME280;9675;51.538;6.728;2023-04-28T07:37:13;100707.16;;;12.18;100.00
19086;BME280;9675;51.538;6.728;2023-04-28T07:39:40;100711.56;;;12.20;100.00
19086;BME280;9675;51.538;6.728;2023-04-28T07:42:09;100712.56;;;12.24;100.00
19086;BME280;9675;51.538;6.728;2023-04-28T07:44:36;100710.94;;;12.26;100.00
19086;BME280;9675;51.538;6.728;2023-04-28T07:47:03;100715.34;;;12.28;100.00
19086;BME280;9675;51.538;6.728;2023-04-28T07:49:30;100719.84;;;12.32;100.00
19086;BME280;9675;51.538;6.728;2023-04-28T07:51:58;100727.63;;;12.34;100.00
19086;BME280;9675;51.538;6.728;2023-04-28T07:54:25;100724.28;;;12.37;100.00
19086;BME280;9675;51.538;6.728;2023-04-28T07:56:52;100719.22;;;12.40;100.00
19086;BME280;9675;51.538;6.728;2023-04-28T07:59:20;100714.22;;;12.43;100.00
19086;BME280;9675;51.538;6.728;2023-04-28T08:01:47;100710.78;;;12.44;100.00
19086;BME280;9675;51.538;6.728;2023-04-28T08:04:14;100707.53;;;12.48;100.00
19086;BME280;9675;51.538;6.728;2023-04-28T08:06:41;100703.34;;;12.51;100.00
19086;BME280;9675;51.538;6.728;2023-04-28T08:09:08;100704.34;;;12.55;100.00
19086;BME280;9675;51.538;6.728;2023-04-28T08:11:36;100707.06;;;12.58;100.00
19086;BME280;9675;51.538;6.728;2023-04-28T08:14:03;100703.72;;;12.60;100.00
19086;BME280;9675;51.538;6.728;2023-04-28T08:16:31;100704.72;;;12.64;100.00
19086;BME280;9675;51.538;6.728;2023-04-28T08:18:59;100697.91;;;12.66;100.00
19086;BME280;9675;51.538;6.728;2023-04-28T08:21:26;100698.13;;;12.72;100.00
19086;BME280;9675;51.538;6.728;2023-04-28T08:23:53;100695.66;;;12.75;100.00
19086;BME280;9675;51.538;6.728;2023-04-28T08:26:20;100694.03;;;12.77;100.00
19086;BME280;9675;51.538;6.728;2023-04-28T08:28:49;100690.69;;;12.80;100.00
19086;BME280;9675;51.538;6.728;2023-04-28T08:31:16;100692.56;;;12.84;100.00
19086;BME280;9675;51.538;6.728;2023-04-28T08:33:45;100695.31;;;12.88;100.00
19086;BME280;9675;51.538;6.728;2023-04-28T08:36:14;100686.84;;;12.92;100.00
19086;BME280;9675;51.538;6.728;2023-04-28T08:38:43;100693.00;;;12.96;100.00
19086;BME280;9675;51.538;6.728;2023-04-28T08:41:14;100694.06;;;13.01;100.00
19086;BME280;9675;51.538;6.728;2023-04-28T08:43:41;100685.63;;;13.05;100.00
19086;BME280;9675;51.538;6.728;2023-04-28T08:46:09;100684.00;;;13.08;100.00
19086;BME280;9675;51.538;6.728;2023-04-28T08:48:40;100688.56;;;13.14;100.00
19086;BME280;9675;51.538;6.728;2023-04-28T08:51:14;100691.38;;;13.20;100.00
19086;BME280;9675;51.538;6.728;2023-04-28T08:53:48;100692.47;;;13.27;100.00
19086;BME280;9675;51.538;6.728;2023-04-28T08:56:17;100692.66;;;13.31;100.00
19086;BME280;9675;51.538;6.728;2023-04-28T08:58:49;100692.81;;;13.36;100.00
19086;BME280;9675;51.538;6.728;2023-04-28T09:01:17;100690.31;;;13.39;100.00
19086;BME280;9675;51.538;6.728;2023-04-28T09:03:44;100693.13;;;13.45;100.00
19086;BME280;9675;51.538;6.728;2023-04-28T09:06:13;100691.50;;;13.47;100.00
19086;BME280;9675;51.538;6.728;2023-04-28T09:08:40;100694.19;;;13.50;100.00
19086;BME280;9675;51.538;6.728;2023-04-28T09:11:09;100692.56;;;13.53;100.00
19086;BME280;9675;51.538;6.728;2023-04-28T09:13:39;100692.63;;;13.55;100.00
19086;BME280;9675;51.538;6.728;2023-04-28T09:16:06;100688.34;;;13.55;100.00
19086;BME280;9675;51.538;6.728;2023-04-28T09:18:33;100681.56;;;13.59;100.00
19086;BME280;9675;51.538;6.728;2023-04-28T09:21:05;100692.03;;;13.62;100.00
19086;BME280;9675;51.538;6.728;2023-04-28T09:23:45;100687.75;;;13.64;100.00
19086;BME280;9675;51.538;6.728;2023-04-28T09:26:13;100693.06;;;13.67;100.00
19086;BME280;9675;51.538;6.728;2023-04-28T09:28:40;100680.16;;;13.69;100.00
19086;BME280;9675;51.538;6.728;2023-04-28T09:31:22;100686.34;;;13.72;100.00
19086;BME280;9675;51.538;6.728;2023-04-28T09:33:56;100689.06;;;13.77;100.00
19086;BME280;9675;51.538;6.728;2023-04-28T09:36:26;100681.34;;;13.78;100.00
19086;BME280;9675;51.538;6.728;2023-04-28T09:38:58;100692.63;;;13.80;100.00
19086;BME280;9675;51.538;6.728;2023-04-28T09:41:35;100691.00;;;13.82;100.00
19086;BME280;9675;51.538;6.728;2023-04-28T09:44:16;100686.78;;;13.86;100.00
19086;BME280;9675;51.538;6.728;2023-04-28T09:46:44;100684.28;;;13.87;100.00
19086;BME280;9675;51.538;6.728;2023-04-28T09:49:12;100684.28;;;13.89;100.00
19086;BME280;9675;51.538;6.728;2023-04-28T09:51:40;100677.47;;;13.91;100.00
19086;BME280;9675;51.538;6.728;2023-04-28T09:54:09;100676.66;;;13.92;100.00
19086;BME280;9675;51.538;6.728;2023-04-28T09:56:43;100683.63;;;13.94;100.00
19086;BME280;9675;51.538;6.728;2023-04-28T09:59:12;100671.63;;;13.96;100.00
19086;BME280;9675;51.538;6.728;2023-04-28T10:01:41;100667.31;;;13.97;100.00
19086;BME280;9675;51.538;6.728;2023-04-28T10:04:09;100674.34;;;14.01;100.00
19086;BME280;9675;51.538;6.728;2023-04-28T10:06:39;100671.00;;;14.03;100.00
19086;BME280;9675;51.538;6.728;2023-04-28T10:09:08;100673.69;;;14.07;100.00
19086;BME280;9675;51.538;6.728;2023-04-28T10:11:37;100676.34;;;14.10;100.00
19086;BME280;9675;51.538;6.728;2023-04-28T10:14:05;100668.59;;;14.10;100.00
19086;BME280;9675;51.538;6.728;2023-04-28T10:16:32;100670.34;;;14.11;100.00
19086;BME280;9675;51.538;6.728;2023-04-28T10:19:01;100666.19;;;14.14;100.00
19086;BME280;9675;51.538;6.728;2023-04-28T10:21:34;100667.97;;;14.17;100.00
19086;BME280;9675;51.538;6.728;2023-04-28T10:24:14;100667.19;;;14.19;100.00
19086;BME280;9675;51.538;6.728;2023-04-28T10:27:04;100668.06;;;14.20;100.00
19086;BME280;9675;51.538;6.728;2023-04-28T10:29:34;100664.69;;;14.22;100.00
19086;BME280;9675;51.538;6.728;2023-04-28T10:32:21;100666.53;;;14.25;100.00
19086;BME280;9675;51.538;6.728;2023-04-28T10:34:51;100667.44;;;14.27;100.00
19086;BME280;9675;51.538;6.728;2023-04-28T10:37:18;100670.13;;;14.30;100.00
19086;BME280;9675;51.538;6.728;2023-04-28T10:40:33;100668.44;;;14.32;100.00
19086;BME280;9675;51.538;6.728;2023-04-28T10:43:02;100659.03;;;14.34;100.00
19086;BME280;9675;51.538;6.728;2023-04-28T10:46:12;100666.97;;;14.38;100.00
19086;BME280;9675;51.538;6.728;2023-04-28T10:48:56;100668.75;;;14.39;100.00
19086;BME280;9675;51.538;6.728;2023-04-28T10:51:33;100673.13;;;14.42;100.00
19086;BME280;9675;51.538;6.728;2023-04-28T10:54:17;100661.09;;;14.44;100.00
19086;BME280;9675;51.538;6.728;2023-04-28T10:57:20;100668.06;;;14.45;100.00
19086;BME280;9675;51.538;6.728;2023-04-28T10:59:48;100667.19;;;14.46;100.00
19086;BME280;9675;51.538;6.728;2023-04-28T11:02:43;100663.00;;;14.50;100.00
19086;BME280;9675;51.538;6.728;2023-04-28T11:05:14;100665.69;;;14.53;100.00
19086;BME280;9675;51.538;6.728;2023-04-28T11:08:31;100669.22;;;14.55;100.00
19086;BME280;9675;51.538;6.728;2023-04-28T11:11:31;100677.00;;;14.56;100.00
19086;BME280;9675;51.538;6.728;2023-04-28T11:14:31;100671.00;;;14.57;100.00
19086;BME280;9675;51.538;6.728;2023-04-28T11:17:00;100673.72;;;14.60;100.00
19086;BME280;9675;51.538;6.728;2023-04-28T11:19:29;100663.34;;;14.60;100.00
19086;BME280;9675;51.538;6.728;2023-04-28T11:21:59;100668.59;;;14.63;100.00
19086;BME280;9675;51.538;6.728;2023-04-28T11:24:28;100669.53;;;14.65;100.00
19086;BME280;9675;51.538;6.728;2023-04-28T11:26:56;100662.66;;;14.66;100.00
19086;BME280;9675;51.538;6.728;2023-04-28T11:29:32;100660.06;;;14.67;100.00
19086;BME280;9675;51.538;6.728;2023-04-28T11:32:01;100663.50;;;14.66;100.00
19086;BME280;9675;51.538;6.728;2023-04-28T11:34:28;100665.25;;;14.67;100.00
19086;BME280;9675;51.538;6.728;2023-04-28T11:36:55;100667.03;;;14.68;100.00
19086;BME280;9675;51.538;6.728;2023-04-28T11:39:27;100671.44;;;14.71;100.00
19086;BME280;9675;51.538;6.728;2023-04-28T11:41:55;100662.81;;;14.72;100.00
19086;BME280;9675;51.538;6.728;2023-04-28T11:44:24;100668.88;;;14.72;100.00
19086;BME280;9675;51.538;6.728;2023-04-28T11:46:54;100665.44;;;14.73;100.00
19086;BME280;9675;51.538;6.728;2023-04-28T11:49:23;100667.28;;;14.77;100.00
19086;BME280;9675;51.538;6.728;2023-04-28T11:51:51;100671.66;;;14.78;100.00
19086;BME280;9675;51.538;6.728;2023-04-28T11:54:22;100676.97;;;14.83;100.00
19086;BME280;9675;51.538;6.728;2023-04-28T11:56:50;100672.78;;;14.86;100.00
19086;BME280;9675;51.538;6.728;2023-04-28T11:59:22;100667.59;;;14.86;100.00
19086;BME280;9675;51.538;6.728;2023-04-28T12:01:53;100674.56;;;14.89;100.00
19086;BME280;9675;51.538;6.728;2023-04-28T12:04:28;100676.38;;;14.92;100.00
19086;BME280;9675;51.538;6.728;2023-04-28T12:07:04;100673.88;;;14.95;100.00
19086;BME280;9675;51.538;6.728;2023-04-28T12:09:33;100673.88;;;14.95;100.00
19086;BME280;9675;51.538;6.728;2023-04-28T12:12:03;100671.34;;;14.98;100.00
19086;BME280;9675;51.538;6.728;2023-04-28T12:14:31;100668.03;;;15.02;100.00
19086;BME280;9675;51.538;6.728;2023-04-28T12:17:01;100669.94;;;15.07;100.00
19086;BME280;9675;51.538;6.728;2023-04-28T12:19:29;100667.47;;;15.12;100.00
19086;BME280;9675;51.538;6.728;2023-04-28T12:22:01;100668.47;;;15.17;100.00
19086;BME280;9675;51.538;6.728;2023-04-28T12:24:29;100674.59;;;15.20;100.00
19086;BME280;9675;51.538;6.728;2023-04-28T12:27:15;100662.59;;;15.24;100.00
19086;BME280;9675;51.538;6.728;2023-04-28T12:29:43;100655.75;;;15.26;100.00
19086;BME280;9675;51.538;6.728;2023-04-28T12:32:13;100660.16;;;15.30;100.00
19086;BME280;9675;51.538;6.728;2023-04-28T12:34:43;100671.53;;;15.34;100.00
19086;BME280;9675;51.538;6.728;2023-04-28T12:37:11;100663.78;;;15.35;100.00
19086;BME280;9675;51.538;6.728;2023-04-28T12:39:40;100652.63;;;15.39;100.00
19086;BME280;9675;51.538;6.728;2023-04-28T12:42:07;100650.19;;;15.45;100.00
19086;BME280;9675;51.538;6.728;2023-04-28T12:44:36;100653.78;;;15.50;100.00
19086;BME280;9675;51.538;6.728;2023-04-28T12:47:05;100641.84;;;15.55;100.00
19086;BME280;9675;51.538;6.728;2023-04-28T12:49:34;100645.44;;;15.59;100.00
19086;BME280;9675;51.538;6.728;2023-04-28T12:52:03;100652.50;;;15.64;100.00
19086;BME280;9675;51.538;6.728;2023-04-28T12:54:30;100643.13;;;15.69;100.00
19086;BME280;9675;51.538;6.728;2023-04-28T12:56:57;100640.53;;;15.71;100.00
19086;BME280;9675;51.538;6.728;2023-04-28T12:59:24;100642.41;;;15.77;100.00
19086;BME280;9675;51.538;6.728;2023-04-28T13:01:52;100638.22;;;15.82;100.00
19086;BME280;9675;51.538;6.728;2023-04-28T13:04:20;100643.50;;;15.85;100.00
19086;BME280;9675;51.538;6.728;2023-04-28T13:06:48;100645.31;;;15.89;100.00